Terminal Aerodrome Forecast
Issued by NWS

Home | Current Version | Previous Version | Graphics & Text | Print | Product List | Glossary On
Versions: 1 2 3 4 5 6 7 8 9 10 11 12 13 14 15 16 17 18 19 20 21 22 23 24 25 26 27 28
334
FTUS43 KLOT 211534 AAB
TAFORD
TAF AMD
KORD 211534Z 2116/2218 18004KT 1 1/2SM BR OVC004
      TEMPO 2116/2119 1/2SM -DZ FG OVC003
     FM211900 10004KT 1 1/2SM -DZ BR OVC003
      TEMPO 2121/2201 3/4SM -DZ BR
     FM220100 11006KT 1SM -DZ BR OVC003
     FM221000 12007KT 2SM SHRA BR OVC004=

USA.gov is the U.S. government's official web portal to all federal, state and local government web resources and services.